createdAt,value
2022-08-17T00:00:16.569Z,100550.81
2022-08-17T00:03:03.883Z,100545.00
2022-08-17T00:05:33.915Z,100548.09
2022-08-17T00:08:03.157Z,100557.34
2022-08-17T00:10:31.136Z,100550.31
2022-08-17T00:13:00.910Z,100551.06
2022-08-17T00:15:28.793Z,100544.59
2022-08-17T00:17:56.587Z,100540.38
2022-08-17T00:20:33.609Z,100541.97
2022-08-17T00:23:06.491Z,100541.28
2022-08-17T00:25:34.950Z,100550.28
2022-08-17T00:28:03.107Z,100559.06
2022-08-17T00:30:31.507Z,100559.47
2022-08-17T00:33:21.004Z,100557.50
2022-08-17T00:35:49.669Z,100557.97
2022-08-17T00:38:19.207Z,100563.59
2022-08-17T00:40:49.482Z,100566.59
2022-08-17T00:43:22.116Z,100556.63
2022-08-17T00:45:50.508Z,100562.44
2022-08-17T00:48:26.153Z,100561.06
2022-08-17T00:51:04.344Z,100559.38
2022-08-17T00:53:35.654Z,100564.47
2022-08-17T00:56:10.213Z,100565.19
2022-08-17T00:58:38.428Z,100570.72
2022-08-17T01:01:08.228Z,100564.97
2022-08-17T01:03:36.447Z,100569.53
2022-08-17T01:06:08.166Z,100568.88
2022-08-17T01:08:40.450Z,100567.88
2022-08-17T01:11:09.098Z,100563.50
2022-08-17T01:13:42.077Z,100574.75
2022-08-17T01:16:16.948Z,100576.22
2022-08-17T01:18:46.397Z,100576.22
2022-08-17T01:21:20.107Z,100573.34
2022-08-17T01:23:49.305Z,100577.56
2022-08-17T01:26:17.579Z,100580.53
2022-08-17T01:28:54.397Z,100573.50
2022-08-17T01:31:24.532Z,100579.13
2022-08-17T01:33:52.347Z,100578.81
2022-08-17T01:36:20.223Z,100577.78
2022-08-17T01:38:49.437Z,100582.03
2022-08-17T01:41:17.833Z,100580.31
2022-08-17T01:43:47.413Z,100585.31
2022-08-17T01:46:17.412Z,100583.19
2022-08-17T01:48:47.337Z,100583.41
2022-08-17T01:51:15.834Z,100583.22
2022-08-17T01:53:49.007Z,100580.78
2022-08-17T01:56:22.708Z,100582.50
2022-08-17T01:58:50.590Z,100590.09
2022-08-17T02:01:19.871Z,100598.63
2022-08-17T02:03:53.358Z,100599.91
2022-08-17T02:06:30.280Z,100592.00
2022-08-17T02:09:03.540Z,100590.56
2022-08-17T02:11:36.045Z,100592.50
2022-08-17T02:14:05.257Z,100604.31
2022-08-17T02:16:37.175Z,100602.16
2022-08-17T02:19:08.071Z,100609.00
2022-08-17T02:21:36.285Z,100602.81
2022-08-17T02:24:04.871Z,100597.88
2022-08-17T02:26:34.054Z,100602.59
2022-08-17T02:29:01.947Z,100601.66
2022-08-17T02:31:30.051Z,100600.06
2022-08-17T02:34:03.810Z,100604.97
2022-08-17T02:36:33.278Z,100597.44
2022-08-17T02:39:01.958Z,100600.66
2022-08-17T02:41:29.814Z,100600.38
2022-08-17T02:43:59.009Z,100598.44
2022-08-17T02:46:28.473Z,100600.22
2022-08-17T02:48:56.411Z,100592.22
2022-08-17T02:51:24.281Z,100591.44
2022-08-17T02:53:52.171Z,100592.22
2022-08-17T02:56:19.974Z,100601.19
2022-08-17T02:58:47.789Z,100593.00
2022-08-17T03:01:17.155Z,100593.97
2022-08-17T03:03:45.029Z,100600.31
2022-08-17T03:06:12.898Z,100594.75
2022-08-17T03:08:40.944Z,100599.09
2022-08-17T03:11:08.907Z,100599.25
2022-08-17T03:13:36.725Z,100593.88
2022-08-17T03:16:09.117Z,100594.84
2022-08-17T03:18:38.387Z,100604.66
2022-08-17T03:21:08.458Z,100598.06
2022-08-17T03:23:40.905Z,100596.34
2022-08-17T03:26:12.389Z,100601.59
2022-08-17T03:28:43.564Z,100607.66
2022-08-17T03:31:11.353Z,100602.66
2022-08-17T03:33:40.532Z,100596.34
2022-08-17T03:36:09.146Z,100593.84
2022-08-17T03:38:39.265Z,100592.16
2022-08-17T03:41:08.135Z,100589.22
2022-08-17T03:43:35.893Z,100583.38
2022-08-17T03:46:28.864Z,100579.75
2022-08-17T03:49:36.687Z,100578.25
2022-08-17T03:52:22.149Z,100580.19
2022-08-17T03:55:07.509Z,100586.94
2022-08-17T03:57:35.421Z,100582.38
2022-08-17T04:00:04.431Z,100581.56
2022-08-17T04:02:39.636Z,100573.59
2022-08-17T04:05:09.345Z,100575.22
2022-08-17T04:07:37.147Z,100577.31
2022-08-17T04:10:05.516Z,100579.88
2022-08-17T04:12:45.323Z,100587.53
2022-08-17T04:15:13.812Z,100594.75
2022-08-17T04:17:44.177Z,100593.47
2022-08-17T04:20:15.051Z,100597.72
2022-08-17T04:22:57.100Z,100593.38
2022-08-17T04:25:25.380Z,100600.75
2022-08-17T04:27:53.154Z,100600.22
2022-08-17T04:30:21.315Z,100596.69
2022-08-17T04:33:03.605Z,100599.41
2022-08-17T04:35:37.882Z,100601.31
2022-08-17T04:38:06.102Z,100605.47
2022-08-17T04:40:53.888Z,100601.47
2022-08-17T04:43:22.899Z,100601.44
2022-08-17T04:45:56.077Z,100609.72
2022-08-17T04:48:36.651Z,100604.78
2022-08-17T04:51:13.493Z,100604.00
2022-08-17T04:53:44.082Z,100603.00
2022-08-17T04:56:16.768Z,100605.44
2022-08-17T04:58:45.876Z,100603.97
2022-08-17T05:01:13.936Z,100602.91
2022-08-17T05:03:42.329Z,100604.06
2022-08-17T05:06:12.017Z,100602.59
2022-08-17T05:08:40.179Z,100597.19
2022-08-17T05:11:08.497Z,100598.50
2022-08-17T05:13:36.272Z,100596.25
2022-08-17T05:16:09.000Z,100602.53
2022-08-17T05:18:38.796Z,100606.34
2022-08-17T05:21:07.475Z,100601.19
2022-08-17T05:23:42.844Z,100605.63
2022-08-17T05:26:26.387Z,100612.09
2022-08-17T05:28:57.286Z,100606.31
2022-08-17T05:31:28.538Z,100602.94
2022-08-17T05:33:56.372Z,100604.69
2022-08-17T05:36:43.150Z,100614.91
2022-08-17T05:39:17.111Z,100601.78
2022-08-17T05:41:47.105Z,100607.19
2022-08-17T05:44:14.921Z,100602.28
2022-08-17T05:46:44.845Z,100607.81
2022-08-17T05:49:13.150Z,100611.97
2022-08-17T05:52:03.275Z,100615.19
2022-08-17T05:54:40.530Z,100607.28
2022-08-17T05:57:18.025Z,100622.47
2022-08-17T05:59:56.451Z,100620.94
2022-08-17T06:02:30.570Z,100619.59
2022-08-17T06:05:11.907Z,100620.81
2022-08-17T06:07:47.139Z,100622.34
2022-08-17T06:10:25.987Z,100620.34
2022-08-17T06:13:02.938Z,100624.97
2022-08-17T06:15:34.000Z,100627.41
2022-08-17T06:18:06.956Z,100622.97
2022-08-17T06:20:40.132Z,100626.44
2022-08-17T06:23:14.290Z,100633.19
2022-08-17T06:25:46.064Z,100629.59
2022-08-17T06:28:16.536Z,100629.19
2022-08-17T06:30:59.944Z,100635.81
2022-08-17T06:33:34.276Z,100633.03
2022-08-17T06:36:11.566Z,100628.25
2022-08-17T06:38:49.951Z,100636.41
2022-08-17T06:41:26.459Z,100631.03
2022-08-17T06:44:04.494Z,100626.22
2022-08-17T06:46:36.994Z,100627.97
2022-08-17T06:49:15.379Z,100628.50
2022-08-17T06:51:46.906Z,100631.53
2022-08-17T06:54:20.762Z,100624.84
2022-08-17T06:56:55.400Z,100626.22
2022-08-17T06:59:54.171Z,100625.59
2022-08-17T07:02:20.121Z,100630.34
2022-08-17T07:04:57.463Z,100635.38
2022-08-17T07:07:42.934Z,100636.78
2022-08-17T07:10:11.395Z,100628.28
2022-08-17T07:12:42.600Z,100633.19
2022-08-17T07:15:14.134Z,100632.78
2022-08-17T07:17:57.797Z,100630.16
2022-08-17T07:20:26.440Z,100631.13
2022-08-17T07:23:00.007Z,100625.88
2022-08-17T07:25:30.743Z,100631.63
2022-08-17T07:28:04.227Z,100631.47
2022-08-17T07:30:47.238Z,100629.66
2022-08-17T07:33:20.486Z,100632.59
2022-08-17T07:35:49.979Z,100634.81
2022-08-17T07:38:24.661Z,100637.66
2022-08-17T07:41:06.793Z,100633.50
2022-08-17T07:43:38.181Z,100630.03
2022-08-17T07:46:32.963Z,100633.19
2022-08-17T07:49:19.990Z,100644.63
2022-08-17T07:52:47.433Z,100633.81
2022-08-17T07:54:48.448Z,100645.59
2022-08-17T07:57:31.887Z,100638.22
2022-08-17T08:00:19.678Z,100643.97
2022-08-17T08:03:05.957Z,100639.44
2022-08-17T08:05:49.680Z,100632.75
2022-08-17T08:08:30.491Z,100634.19
2022-08-17T08:11:04.028Z,100637.19
2022-08-17T08:13:32.737Z,100637.41
2022-08-17T08:16:30.151Z,100639.81
2022-08-17T08:19:00.197Z,100642.63
2022-08-17T08:21:39.588Z,100648.84
2022-08-17T08:24:23.693Z,100650.81
2022-08-17T08:26:56.999Z,100649.41
2022-08-17T08:29:29.877Z,100646.84
2022-08-17T08:32:04.727Z,100652.88
2022-08-17T08:34:58.606Z,100648.00
2022-08-17T08:37:40.518Z,100645.00
2022-08-17T08:40:19.359Z,100637.81
2022-08-17T08:42:53.984Z,100634.78
2022-08-17T08:45:28.113Z,100635.56
2022-08-17T08:48:45.889Z,100631.19
2022-08-17T08:51:08.606Z,100641.50
2022-08-17T08:53:48.644Z,100639.59
2022-08-17T08:56:21.500Z,100632.88
2022-08-17T08:58:53.218Z,100632.16
2022-08-17T09:01:25.986Z,100631.59
2022-08-17T09:04:24.799Z,100638.81
2022-08-17T09:07:02.110Z,100636.41
2022-08-17T09:09:43.085Z,100636.03
2022-08-17T09:12:16.828Z,100631.25
2022-08-17T09:14:52.464Z,100629.59
2022-08-17T09:17:22.769Z,100629.47
2022-08-17T09:19:55.827Z,100633.22
2022-08-17T09:22:31.685Z,100628.03
2022-08-17T09:25:06.476Z,100625.88
2022-08-17T09:27:37.651Z,100623.75
2022-08-17T09:30:08.924Z,100622.56
2022-08-17T09:32:41.208Z,100634.25
2022-08-17T09:35:15.830Z,100628.63
2022-08-17T09:37:51.541Z,100626.41
2022-08-17T09:40:24.904Z,100618.72
2022-08-17T09:42:57.739Z,100618.56
2022-08-17T09:45:31.716Z,100631.41
2022-08-17T09:48:04.945Z,100633.91
2022-08-17T09:51:05.224Z,100635.25
2022-08-17T09:53:26.660Z,100631.44
2022-08-17T09:56:12.343Z,100620.03
2022-08-17T09:58:51.190Z,100618.31
2022-08-17T10:01:26.813Z,100619.19
2022-08-17T10:04:12.135Z,100622.22
2022-08-17T10:06:50.336Z,100616.06
2022-08-17T10:09:23.651Z,100611.94
2022-08-17T10:12:12.735Z,100612.09
2022-08-17T10:14:57.604Z,100607.56
2022-08-17T10:17:41.191Z,100604.66
2022-08-17T10:20:13.965Z,100606.50
2022-08-17T10:23:04.281Z,100599.50
2022-08-17T10:25:55.222Z,100608.94
2022-08-17T10:28:30.259Z,100609.69
2022-08-17T10:31:33.831Z,100613.50
2022-08-17T10:34:14.506Z,100610.00
2022-08-17T10:36:47.981Z,100608.16
2022-08-17T10:39:26.132Z,100613.69
2022-08-17T10:41:57.028Z,100610.44
2022-08-17T10:44:39.917Z,100609.81
2022-08-17T10:47:10.524Z,100618.44
2022-08-17T10:49:47.764Z,100612.59
2022-08-17T10:52:49.963Z,100618.88
2022-08-17T10:55:20.639Z,100612.06
2022-08-17T10:57:50.779Z,100609.75
2022-08-17T11:01:08.952Z,100613.97
2022-08-17T11:03:36.942Z,100614.34
2022-08-17T11:06:15.905Z,100612.22
2022-08-17T11:09:07.604Z,100599.47
2022-08-17T11:11:51.411Z,100597.28
2022-08-17T11:14:37.195Z,100594.75
2022-08-17T11:17:15.892Z,100597.81
2022-08-17T11:20:07.809Z,100601.06
2022-08-17T11:23:04.819Z,100589.81
2022-08-17T11:25:35.316Z,100585.72
2022-08-17T11:28:18.128Z,100581.75
2022-08-17T11:30:52.352Z,100586.53
2022-08-17T11:33:57.049Z,100579.88
2022-08-17T11:36:41.931Z,100579.50
2022-08-17T11:39:25.734Z,100588.13
2022-08-17T11:41:59.790Z,100584.81
2022-08-17T11:44:39.079Z,100578.50
2022-08-17T11:47:29.931Z,100574.19
2022-08-17T11:50:27.895Z,100574.38
2022-08-17T11:52:56.240Z,100570.22
2022-08-17T11:56:06.188Z,100567.22
2022-08-17T11:58:40.198Z,100569.88
2022-08-17T12:01:13.640Z,100565.34
2022-08-17T12:03:53.777Z,100573.25
2022-08-17T12:06:33.437Z,100564.59
2022-08-17T12:09:08.279Z,100551.88
2022-08-17T12:12:11.317Z,100557.22
2022-08-17T12:15:05.966Z,100570.72
2022-08-17T12:17:39.375Z,100565.59
2022-08-17T12:20:19.615Z,100559.56
2022-08-17T12:22:53.767Z,100564.28
2022-08-17T12:25:25.674Z,100564.16
2022-08-17T12:28:05.212Z,100564.28
2022-08-17T12:30:35.305Z,100572.16
2022-08-17T12:33:05.160Z,100571.28
2022-08-17T12:35:35.574Z,100569.25
2022-08-17T12:38:06.474Z,100564.16
2022-08-17T12:40:55.530Z,100566.03
2022-08-17T12:43:30.348Z,100560.34
2022-08-17T12:46:15.426Z,100556.63
2022-08-17T12:48:58.788Z,100548.81
2022-08-17T12:51:29.295Z,100540.13
2022-08-17T12:53:57.601Z,100551.94
2022-08-17T12:56:25.528Z,100539.75
2022-08-17T12:58:56.465Z,100533.09
2022-08-17T13:01:25.254Z,100532.47
2022-08-17T13:03:57.178Z,100530.25
2022-08-17T13:06:31.431Z,100524.56
2022-08-17T13:09:09.815Z,100523.69
2022-08-17T13:11:37.732Z,100533.72
2022-08-17T13:14:10.672Z,100534.75
2022-08-17T13:16:38.589Z,100523.72
2022-08-17T13:19:10.608Z,100527.47
2022-08-17T13:21:38.661Z,100521.31
2022-08-17T13:24:08.484Z,100522.41
2022-08-17T13:26:38.471Z,100530.25
2022-08-17T13:29:08.776Z,100519.38
2022-08-17T13:31:49.793Z,100518.16
2022-08-17T13:34:35.821Z,100517.50
2022-08-17T13:37:35.408Z,100514.88
2022-08-17T13:40:30.577Z,100522.78
2022-08-17T13:42:59.388Z,100525.31
2022-08-17T13:45:38.874Z,100518.72
2022-08-17T13:48:14.377Z,100524.69
2022-08-17T13:50:46.893Z,100521.66
2022-08-17T13:53:20.185Z,100519.88
2022-08-17T13:55:50.613Z,100506.84
2022-08-17T13:58:23.953Z,100516.56
2022-08-17T14:00:51.868Z,100516.16
2022-08-17T14:03:20.517Z,100508.19
2022-08-17T14:05:50.998Z,100514.28
2022-08-17T14:08:20.524Z,100513.72
2022-08-17T14:10:58.081Z,100512.53
2022-08-17T14:13:25.929Z,100506.88
2022-08-17T14:15:56.573Z,100511.59
2022-08-17T14:18:55.573Z,100506.03
2022-08-17T14:21:14.391Z,100504.19
2022-08-17T14:23:43.586Z,100503.16
2022-08-17T14:26:17.002Z,100511.72
2022-08-17T14:28:54.652Z,100499.44
2022-08-17T14:31:24.973Z,100506.75
2022-08-17T14:33:53.032Z,100502.13
2022-08-17T14:36:22.324Z,100497.25
2022-08-17T14:38:50.491Z,100496.94
2022-08-17T14:41:22.018Z,100504.38
2022-08-17T14:43:52.921Z,100507.03
2022-08-17T14:46:20.823Z,100503.75
2022-08-17T14:48:52.726Z,100491.56
2022-08-17T14:51:24.622Z,100492.56
2022-08-17T14:53:52.704Z,100487.81
2022-08-17T14:56:20.618Z,100500.75
2022-08-17T14:58:48.504Z,100499.28
2022-08-17T15:01:16.516Z,100486.06
2022-08-17T15:03:44.572Z,100484.56
2022-08-17T15:06:15.295Z,100493.25
2022-08-17T15:08:45.947Z,100487.16
2022-08-17T15:11:14.720Z,100492.34
2022-08-17T15:13:52.818Z,100492.47
2022-08-17T15:16:21.447Z,100492.13
2022-08-17T15:18:50.148Z,100491.09
2022-08-17T15:21:18.188Z,100489.78
2022-08-17T15:23:47.758Z,100483.13
2022-08-17T15:26:16.573Z,100488.75
2022-08-17T15:28:44.402Z,100492.16
2022-08-17T15:31:31.709Z,100486.09
2022-08-17T15:34:00.530Z,100490.41
2022-08-17T15:36:28.764Z,100497.56
2022-08-17T15:38:58.855Z,100479.41
2022-08-17T15:41:28.116Z,100478.28
2022-08-17T15:43:56.320Z,100483.94
2022-08-17T15:46:26.019Z,100479.38
2022-08-17T15:48:56.583Z,100468.47
2022-08-17T15:51:26.880Z,100468.44
2022-08-17T15:53:57.659Z,100476.13
2022-08-17T15:56:25.814Z,100475.81
2022-08-17T15:58:54.817Z,100465.53
2022-08-17T16:03:01.512Z,100464.63
2022-08-17T16:04:26.605Z,100471.88
2022-08-17T16:06:58.671Z,100467.69
2022-08-17T16:09:28.035Z,100461.72
2022-08-17T16:11:56.438Z,100463.53
2022-08-17T16:14:33.644Z,100462.81
2022-08-17T16:17:03.477Z,100461.44
2022-08-17T16:19:31.396Z,100462.16
2022-08-17T16:21:59.317Z,100463.31
2022-08-17T16:24:28.745Z,100462.44
2022-08-17T16:26:56.805Z,100465.53
2022-08-17T16:29:24.667Z,100462.56
2022-08-17T16:31:52.492Z,100462.88
2022-08-17T16:34:21.021Z,100449.53
2022-08-17T16:36:55.066Z,100447.59
2022-08-17T16:39:25.615Z,100454.44
2022-08-17T16:41:55.649Z,100455.59
2022-08-17T16:44:23.574Z,100458.78
2022-08-17T16:46:51.836Z,100457.44
2022-08-17T16:49:35.728Z,100452.53
2022-08-17T16:52:07.218Z,100449.25
2022-08-17T16:54:36.241Z,100449.94
2022-08-17T16:57:05.951Z,100452.59
2022-08-17T16:59:40.914Z,100457.44
2022-08-17T17:02:13.103Z,100453.13
2022-08-17T17:04:47.434Z,100456.72
2022-08-17T17:07:25.679Z,100453.84
2022-08-17T17:09:55.422Z,100457.63
2022-08-17T17:12:34.946Z,100453.88
2022-08-17T17:15:22.000Z,100453.34
2022-08-17T17:17:52.106Z,100454.97
2022-08-17T17:20:23.588Z,100455.44
2022-08-17T17:22:58.703Z,100457.47
2022-08-17T17:25:29.716Z,100458.84
2022-08-17T17:28:05.226Z,100449.84
2022-08-17T17:30:40.838Z,100449.75
2022-08-17T17:33:12.377Z,100455.97
2022-08-17T17:35:49.381Z,100460.84
2022-08-17T17:38:20.200Z,100454.34
2022-08-17T17:40:50.157Z,100457.69
2022-08-17T17:43:38.257Z,100457.31
2022-08-17T17:46:28.520Z,100453.22
2022-08-17T17:48:56.990Z,100451.78
2022-08-17T17:52:07.134Z,100444.78
2022-08-17T17:54:41.784Z,100449.31
2022-08-17T17:57:17.695Z,100447.44
2022-08-17T17:59:52.273Z,100451.63
2022-08-17T18:02:51.976Z,100457.53
2022-08-17T18:05:34.035Z,100461.00
2022-08-17T18:08:10.690Z,100463.63
2022-08-17T18:10:49.052Z,100467.00
2022-08-17T18:13:26.595Z,100467.22
2022-08-17T18:16:00.677Z,100467.66
2022-08-17T18:18:38.451Z,100466.06
2022-08-17T18:21:16.319Z,100470.47
2022-08-17T18:23:48.745Z,100469.41
2022-08-17T18:26:39.333Z,100465.56
2022-08-17T18:29:16.938Z,100472.53
2022-08-17T18:31:46.484Z,100474.88
2022-08-17T18:34:46.102Z,100483.91
2022-08-17T18:37:16.128Z,100479.19
2022-08-17T18:39:47.379Z,100478.00
2022-08-17T18:42:25.691Z,100487.56
2022-08-17T18:44:55.349Z,100479.88
2022-08-17T18:47:26.792Z,100476.41
2022-08-17T18:49:57.805Z,100477.78
2022-08-17T18:52:28.737Z,100483.41
2022-08-17T18:55:08.513Z,100479.09
2022-08-17T18:57:38.531Z,100481.09
2022-08-17T19:00:13.482Z,100485.41
2022-08-17T19:02:52.727Z,100491.03
2022-08-17T19:05:32.147Z,100483.88
2022-08-17T19:08:18.721Z,100488.72
2022-08-17T19:10:48.490Z,100494.19
2022-08-17T19:13:23.958Z,100490.56
2022-08-17T19:16:13.041Z,100479.94
2022-08-17T19:18:47.936Z,100483.81
2022-08-17T19:21:17.864Z,100482.69
2022-08-17T19:23:53.861Z,100475.41
2022-08-17T19:26:54.826Z,100483.47
2022-08-17T19:29:16.578Z,100485.53
2022-08-17T19:31:47.598Z,100483.56
2022-08-17T19:34:33.376Z,100484.09
2022-08-17T19:37:06.915Z,100492.34
2022-08-17T19:39:40.245Z,100486.84
2022-08-17T19:42:12.875Z,100481.66
2022-08-17T19:44:50.389Z,100475.69
2022-08-17T19:47:43.770Z,100488.47
2022-08-17T19:50:22.545Z,100484.44
2022-08-17T19:52:55.196Z,100482.47
2022-08-17T19:55:30.372Z,100486.41
2022-08-17T19:58:04.801Z,100485.41
2022-08-17T20:00:36.137Z,100483.03
2022-08-17T20:03:14.594Z,100486.03
2022-08-17T20:06:11.509Z,100474.38
2022-08-17T20:08:40.601Z,100474.25
2022-08-17T20:11:10.715Z,100478.16
2022-08-17T20:13:42.588Z,100473.00
2022-08-17T20:16:11.019Z,100471.91
2022-08-17T20:18:47.703Z,100467.09
2022-08-17T20:21:20.769Z,100471.06
2022-08-17T20:23:54.102Z,100468.56
2022-08-17T20:26:26.310Z,100468.25
2022-08-17T20:29:37.623Z,100470.50
2022-08-17T20:32:26.071Z,100472.84
2022-08-17T20:35:25.171Z,100468.00
2022-08-17T20:37:57.617Z,100469.31
2022-08-17T20:40:31.926Z,100464.41
2022-08-17T20:43:00.806Z,100466.06
2022-08-17T20:46:26.750Z,100466.56
2022-08-17T20:48:56.811Z,100472.84
2022-08-17T20:51:28.520Z,100469.16
2022-08-17T20:54:25.285Z,100477.53
2022-08-17T20:56:58.462Z,100476.16
2022-08-17T21:00:02.648Z,100469.22
2022-08-17T21:02:32.319Z,100477.66
2022-08-17T21:05:35.533Z,100472.63
2022-08-17T21:08:14.431Z,100479.63
2022-08-17T21:10:46.777Z,100469.81
2022-08-17T21:13:41.025Z,100478.69
2022-08-17T21:16:24.042Z,100473.06
2022-08-17T21:19:00.987Z,100482.94
2022-08-17T21:21:33.495Z,100487.78
2022-08-17T21:24:11.882Z,100485.72
2022-08-17T21:26:51.175Z,100484.84
2022-08-17T21:29:31.020Z,100492.47
2022-08-17T21:32:24.694Z,100497.63
2022-08-17T21:35:28.298Z,100493.88
2022-08-17T21:38:00.262Z,100489.50
2022-08-17T21:40:31.015Z,100497.50
2022-08-17T21:43:20.070Z,100494.19
2022-08-17T21:45:59.857Z,100495.25
2022-08-17T21:48:29.298Z,100492.75
2022-08-17T21:51:04.568Z,100494.09
2022-08-17T21:53:39.694Z,100490.25
2022-08-17T21:56:08.414Z,100492.06
2022-08-17T21:58:40.165Z,100495.53
2022-08-17T22:01:14.942Z,100501.66
2022-08-17T22:03:43.044Z,100503.94
2022-08-17T22:06:22.405Z,100498.16
2022-08-17T22:09:01.790Z,100504.06
2022-08-17T22:11:29.687Z,100502.03
2022-08-17T22:14:05.352Z,100503.22
2022-08-17T22:16:34.807Z,100505.28
2022-08-17T22:19:02.842Z,100510.44
2022-08-17T22:21:30.675Z,100513.78
2022-08-17T22:24:04.986Z,100513.44
2022-08-17T22:26:59.714Z,100507.66
2022-08-17T22:29:53.360Z,100516.56
2022-08-17T22:32:38.291Z,100512.00
2022-08-17T22:35:34.631Z,100518.25
2022-08-17T22:38:33.509Z,100511.66
2022-08-17T22:41:32.025Z,100510.56
2022-08-17T22:44:02.425Z,100506.09
2022-08-17T22:46:32.277Z,100511.03
2022-08-17T22:49:00.576Z,100509.81
2022-08-17T22:51:30.994Z,100510.78
2022-08-17T22:54:19.158Z,100509.22
2022-08-17T22:57:18.897Z,100512.09
2022-08-17T22:59:50.051Z,100512.22
2022-08-17T23:02:26.237Z,100503.09
2022-08-17T23:04:57.317Z,100506.81
2022-08-17T23:07:25.150Z,100510.25
2022-08-17T23:09:54.617Z,100511.16
2022-08-17T23:12:27.060Z,100506.06
2022-08-17T23:15:00.613Z,100505.09
2022-08-17T23:17:37.112Z,100511.56
2022-08-17T23:20:08.519Z,100506.50
2022-08-17T23:22:37.081Z,100507.31
2022-08-17T23:25:05.563Z,100506.88
2022-08-17T23:27:33.305Z,100504.13
2022-08-17T23:30:01.102Z,100502.31
2022-08-17T23:32:30.333Z,100501.84
2022-08-17T23:34:59.124Z,100498.06
2022-08-17T23:37:28.450Z,100493.47
2022-08-17T23:39:56.378Z,100499.03
2022-08-17T23:42:24.340Z,100500.16
2022-08-17T23:44:52.251Z,100497.06
2022-08-17T23:47:21.072Z,100498.84
2022-08-17T23:49:50.305Z,100491.28
2022-08-17T23:52:22.880Z,100495.72
2022-08-17T23:54:50.652Z,100496.56
2022-08-17T23:57:19.965Z,100498.00
